EWG2MS EDDH-LIRF
Flight info
| Callsign | EWG2MS |
|---|---|
| Flight time | N/A |
| Altitude | 37000 |
| Route | AMLUH2C/05 AMLUH M852 DENIX DCT ZUCKA DCT EXITI DCT BERAS M736 LIZUM N503 LIKDA DCT BAKOR DCT VESAL DCT BAGNO DCT GAVRA DCT RITEB |
| Aircraft | A319/M-SDE3FGHIRWY/LB1 |
Departure
| Time | 2026-04-20 14:05 |
|---|---|
| Airport | Hamburg Helmut Schmidt Airport (EDDH) |
Arrival
| Time | N/A |
|---|---|
| Airport | Rome–Fiumicino Leonardo da Vinci International Airport (LIRF) |
| Time | Latitude | Longitude | Altitude | Speed | Heading |
|---|---|---|---|---|---|
| 2026-04-20 13:29 | 53.63373 | 10.00347 | 47 ft | 0 kts | 86° |
| 2026-04-20 13:55 | 53.63372 | 10.00324 | 47 ft | 4 kts | 88° |
| 2026-04-20 13:55 | 53.63372 | 10.00278 | 44 ft | 4 kts | 98° |
| 2026-04-20 13:55 | 53.63380 | 10.00238 | 45 ft | 4 kts | 134° |
| 2026-04-20 13:56 | 53.63391 | 10.00225 | 46 ft | 0 kts | 175° |
| 2026-04-20 13:59 | 53.63386 | 10.00226 | 45 ft | 3 kts | 175° |
| 2026-04-20 13:59 | 53.63355 | 10.00230 | 44 ft | 6 kts | 175° |
| 2026-04-20 13:59 | 53.63294 | 10.00239 | 48 ft | 11 kts | 175° |
| 2026-04-20 13:59 | 53.63202 | 10.00251 | 48 ft | 16 kts | 175° |
| 2026-04-20 14:00 | 53.63083 | 10.00263 | 48 ft | 18 kts | 187° |
| 2026-04-20 14:00 | 53.62964 | 10.00154 | 46 ft | 22 kts | 212° |
| 2026-04-20 14:00 | 53.62839 | 10.00003 | 48 ft | 22 kts | 213° |
| 2026-04-20 14:00 | 53.62703 | 9.99869 | 44 ft | 22 kts | 209° |
| 2026-04-20 14:01 | 53.62627 | 9.99678 | 47 ft | 20 kts | 259° |
| 2026-04-20 14:01 | 53.62602 | 9.99447 | 47 ft | 20 kts | 259° |
| 2026-04-20 14:01 | 53.62575 | 9.99221 | 45 ft | 20 kts | 259° |
| 2026-04-20 14:01 | 53.62551 | 9.98999 | 47 ft | 19 kts | 259° |
| 2026-04-20 14:02 | 53.62527 | 9.98780 | 47 ft | 19 kts | 259° |
| 2026-04-20 14:02 | 53.62502 | 9.98564 | 47 ft | 19 kts | 259° |
| 2026-04-20 14:02 | 53.62477 | 9.98350 | 45 ft | 18 kts | 259° |
| 2026-04-20 14:02 | 53.62443 | 9.98145 | 44 ft | 18 kts | 244° |
| 2026-04-20 14:03 | 53.62370 | 9.97974 | 47 ft | 18 kts | 230° |
| 2026-04-20 14:03 | 53.62292 | 9.97815 | 47 ft | 18 kts | 230° |
| 2026-04-20 14:03 | 53.62214 | 9.97658 | 47 ft | 17 kts | 232° |
| 2026-04-20 14:03 | 53.62184 | 9.97474 | 46 ft | 17 kts | 287° |
| 2026-04-20 14:04 | 53.62285 | 9.97348 | 40 ft | 20 kts | 5° |
| 2026-04-20 14:04 | 53.62386 | 9.97498 | 40 ft | 21 kts | 49° |
| 2026-04-20 14:04 | 53.62580 | 9.97887 | 41 ft | 77 kts | 50° |
| 2026-04-20 14:04 | 53.63065 | 9.98875 | 57 ft | 137 kts | 50° |
| 2026-04-20 14:05 | 53.63672 | 10.00120 | 654 ft | 138 kts | 51° |
| 2026-04-20 14:05 | 53.64282 | 10.01387 | 1321 ft | 143 kts | 50° |
| 2026-04-20 14:05 | 53.64954 | 10.02799 | 1734 ft | 164 kts | 50° |
| 2026-04-20 14:05 | 53.65701 | 10.04384 | 2197 ft | 181 kts | 51° |
| 2026-04-20 14:06 | 53.66507 | 10.06084 | 2844 ft | 188 kts | 52° |
| 2026-04-20 14:06 | 53.67355 | 10.07801 | 3524 ft | 195 kts | 52° |
| 2026-04-20 14:06 | 53.68264 | 10.09606 | 4154 ft | 205 kts | 51° |
| 2026-04-20 14:06 | 53.69156 | 10.11407 | 5146 ft | 200 kts | 51° |
| 2026-04-20 14:07 | 53.70037 | 10.13202 | 6065 ft | 197 kts | 52° |
| 2026-04-20 14:07 | 53.70696 | 10.15294 | 6619 ft | 209 kts | 78° |
| 2026-04-20 14:07 | 53.70603 | 10.17760 | 7302 ft | 217 kts | 108° |
| 2026-04-20 14:07 | 53.69712 | 10.19841 | 8060 ft | 228 kts | 137° |
| 2026-04-20 14:08 | 53.68206 | 10.20971 | 8591 ft | 253 kts | 161° |
| 2026-04-20 14:08 | 53.66416 | 10.21693 | 9045 ft | 273 kts | 161° |
| 2026-04-20 14:08 | 53.64545 | 10.22506 | 9830 ft | 280 kts | 160° |
| 2026-04-20 14:08 | 53.62647 | 10.23359 | 10550 ft | 290 kts | 160° |
| 2026-04-20 14:09 | 53.60620 | 10.24288 | 10846 ft | 313 kts | 160° |
| 2026-04-20 14:09 | 53.58473 | 10.25270 | 11442 ft | 324 kts | 161° |
| 2026-04-20 14:09 | 53.56274 | 10.26265 | 12158 ft | 330 kts | 161° |
| 2026-04-20 14:09 | 53.54037 | 10.27268 | 12897 ft | 336 kts | 162° |
| 2026-04-20 14:10 | 53.51756 | 10.28290 | 13623 ft | 342 kts | 162° |
| 2026-04-20 14:10 | 53.49434 | 10.29327 | 14310 ft | 347 kts | 162° |
| 2026-04-20 14:10 | 53.47880 | 10.30021 | 14749 ft | 350 kts | 162° |
| 2026-04-20 14:10 | 53.45512 | 10.31079 | 15409 ft | 354 kts | 162° |
| 2026-04-20 14:11 | 53.42338 | 10.32498 | 16275 ft | 359 kts | 162° |
| 2026-04-20 14:11 | 53.39913 | 10.33585 | 16965 ft | 363 kts | 162° |
| 2026-04-20 14:11 | 53.37458 | 10.34691 | 17575 ft | 367 kts | 162° |
| 2026-04-20 14:11 | 53.34974 | 10.35811 | 18208 ft | 372 kts | 162° |
| 2026-04-20 14:12 | 53.33279 | 10.36574 | 18607 ft | 375 kts | 162° |
| 2026-04-20 14:12 | 53.30745 | 10.37715 | 19172 ft | 379 kts | 162° |
| 2026-04-20 14:12 | 53.28186 | 10.38866 | 19759 ft | 382 kts | 162° |
| 2026-04-20 14:12 | 53.25621 | 10.40019 | 20397 ft | 383 kts | 162° |
| 2026-04-20 14:13 | 53.23032 | 10.41176 | 21003 ft | 386 kts | 162° |
| 2026-04-20 14:13 | 53.20462 | 10.42324 | 21579 ft | 389 kts | 162° |
| 2026-04-20 14:13 | 53.17834 | 10.43495 | 22165 ft | 392 kts | 162° |
| 2026-04-20 14:13 | 53.15184 | 10.44677 | 22760 ft | 395 kts | 162° |
| 2026-04-20 14:14 | 53.12512 | 10.45851 | 23322 ft | 399 kts | 164° |
| 2026-04-20 14:14 | 53.09787 | 10.46874 | 23841 ft | 403 kts | 166° |
| 2026-04-20 14:14 | 53.07026 | 10.47751 | 24296 ft | 406 kts | 168° |
| 2026-04-20 14:14 | 53.04234 | 10.48556 | 24755 ft | 409 kts | 168° |
| 2026-04-20 14:15 | 53.01418 | 10.49347 | 25219 ft | 411 kts | 168° |
| 2026-04-20 14:15 | 52.98592 | 10.50158 | 25660 ft | 414 kts | 167° |
| 2026-04-20 14:15 | 52.95752 | 10.51000 | 26115 ft | 416 kts | 167° |
| 2026-04-20 14:15 | 52.92892 | 10.51876 | 26564 ft | 418 kts | 167° |
| 2026-04-20 14:16 | 52.90023 | 10.52773 | 26999 ft | 421 kts | 166° |
| 2026-04-20 14:16 | 52.87138 | 10.53681 | 27430 ft | 423 kts | 166° |
| 2026-04-20 14:16 | 52.84235 | 10.54588 | 27855 ft | 426 kts | 166° |
| 2026-04-20 14:16 | 52.81353 | 10.55480 | 28281 ft | 428 kts | 166° |
| 2026-04-20 14:17 | 52.78379 | 10.56391 | 28710 ft | 431 kts | 166° |
| 2026-04-20 14:17 | 52.75460 | 10.57285 | 29151 ft | 432 kts | 166° |
| 2026-04-20 14:17 | 52.72497 | 10.58194 | 29588 ft | 434 kts | 166° |
| 2026-04-20 14:17 | 52.69521 | 10.59105 | 30012 ft | 436 kts | 166° |
| 2026-04-20 14:18 | 52.66520 | 10.60025 | 30289 ft | 441 kts | 166° |
| 2026-04-20 14:18 | 52.63492 | 10.60954 | 30561 ft | 444 kts | 167° |
| 2026-04-20 14:18 | 52.60446 | 10.61885 | 30846 ft | 447 kts | 167° |
| 2026-04-20 14:18 | 52.57376 | 10.62822 | 31135 ft | 450 kts | 167° |
| 2026-04-20 14:19 | 52.54288 | 10.63761 | 31411 ft | 452 kts | 167° |
| 2026-04-20 14:19 | 52.51183 | 10.64702 | 31732 ft | 453 kts | 168° |
| 2026-04-20 14:19 | 52.48084 | 10.65640 | 32164 ft | 452 kts | 168° |
| 2026-04-20 14:19 | 52.44997 | 10.66576 | 32545 ft | 452 kts | 168° |
| 2026-04-20 14:20 | 52.41941 | 10.67500 | 32890 ft | 452 kts | 168° |
| 2026-04-20 14:20 | 52.38843 | 10.68434 | 33256 ft | 453 kts | 169° |
| 2026-04-20 14:20 | 52.35743 | 10.69367 | 33666 ft | 453 kts | 169° |
| 2026-04-20 14:20 | 52.32636 | 10.70303 | 34074 ft | 454 kts | 169° |
| 2026-04-20 14:21 | 52.29527 | 10.71238 | 34388 ft | 455 kts | 169° |
| 2026-04-20 14:21 | 52.26408 | 10.72175 | 34694 ft | 456 kts | 170° |
| 2026-04-20 14:21 | 52.23281 | 10.73111 | 34927 ft | 457 kts | 170° |
| 2026-04-20 14:21 | 52.20150 | 10.74046 | 35163 ft | 458 kts | 170° |
| 2026-04-20 14:22 | 52.17018 | 10.74981 | 35432 ft | 458 kts | 170° |
| 2026-04-20 14:22 | 52.13876 | 10.75921 | 35677 ft | 458 kts | 170° |
| 2026-04-20 14:22 | 52.10736 | 10.76859 | 35936 ft | 458 kts | 170° |
| 2026-04-20 14:22 | 52.07603 | 10.77793 | 36169 ft | 458 kts | 170° |
| 2026-04-20 14:23 | 52.04468 | 10.78726 | 36386 ft | 458 kts | 170° |
| 2026-04-20 14:23 | 52.01325 | 10.79659 | 36600 ft | 459 kts | 171° |
| 2026-04-20 14:23 | 51.98185 | 10.80590 | 36807 ft | 459 kts | 171° |
| 2026-04-20 14:23 | 51.95040 | 10.81518 | 37024 ft | 460 kts | 171° |
| 2026-04-20 14:24 | 51.88741 | 10.83372 | 37140 ft | 458 kts | 171° |
| 2026-04-20 14:24 | 51.82519 | 10.85211 | 37137 ft | 457 kts | 171° |
| 2026-04-20 14:25 | 51.76258 | 10.87060 | 37135 ft | 457 kts | 171° |
| 2026-04-20 14:25 | 51.69991 | 10.88907 | 37136 ft | 458 kts | 171° |
| 2026-04-20 14:26 | 51.63715 | 10.90684 | 37126 ft | 457 kts | 172° |
| 2026-04-20 14:26 | 51.57415 | 10.92252 | 37127 ft | 457 kts | 173° |
| 2026-04-20 14:27 | 51.51121 | 10.93761 | 37117 ft | 457 kts | 173° |
| 2026-04-20 14:27 | 51.44829 | 10.95308 | 37117 ft | 457 kts | 173° |
| 2026-04-20 14:28 | 51.38546 | 10.96900 | 37118 ft | 457 kts | 173° |
| 2026-04-20 14:28 | 51.32299 | 10.98479 | 37116 ft | 457 kts | 173° |
| 2026-04-20 14:29 | 51.26013 | 11.00045 | 37102 ft | 457 kts | 173° |
| 2026-04-20 14:29 | 51.19727 | 11.01600 | 37104 ft | 457 kts | 173° |
| 2026-04-20 14:30 | 51.13432 | 11.03158 | 37096 ft | 458 kts | 173° |
| 2026-04-20 14:30 | 51.07125 | 11.04712 | 37097 ft | 459 kts | 173° |
| 2026-04-20 14:31 | 51.00819 | 11.06262 | 37089 ft | 459 kts | 173° |
| 2026-04-20 14:31 | 50.94509 | 11.07815 | 37090 ft | 459 kts | 173° |
| 2026-04-20 14:32 | 50.88186 | 11.09362 | 37096 ft | 460 kts | 173° |
| 2026-04-20 14:32 | 50.81862 | 11.10901 | 37100 ft | 460 kts | 173° |
| 2026-04-20 14:33 | 50.75538 | 11.12445 | 37097 ft | 460 kts | 174° |
| 2026-04-20 14:33 | 50.69210 | 11.13980 | 37101 ft | 460 kts | 174° |
| 2026-04-20 14:34 | 50.62873 | 11.15512 | 37102 ft | 460 kts | 174° |
| 2026-04-20 14:34 | 50.56575 | 11.17036 | 37103 ft | 461 kts | 174° |
| 2026-04-20 14:35 | 50.50238 | 11.18563 | 37104 ft | 461 kts | 174° |
| 2026-04-20 14:35 | 50.43900 | 11.20095 | 37104 ft | 461 kts | 174° |
| 2026-04-20 14:36 | 50.37556 | 11.21616 | 37104 ft | 461 kts | 174° |
| 2026-04-20 14:36 | 50.31207 | 11.23119 | 37091 ft | 461 kts | 174° |
| 2026-04-20 14:37 | 50.24853 | 11.24629 | 37095 ft | 462 kts | 174° |
| 2026-04-20 14:37 | 50.18500 | 11.26140 | 37091 ft | 462 kts | 174° |
| 2026-04-20 14:38 | 50.12183 | 11.27636 | 37098 ft | 462 kts | 174° |
| 2026-04-20 14:38 | 50.05827 | 11.29141 | 37080 ft | 462 kts | 175° |
| 2026-04-20 14:39 | 49.99458 | 11.30642 | 37085 ft | 462 kts | 175° |
| 2026-04-20 14:39 | 49.93085 | 11.32133 | 37090 ft | 463 kts | 175° |
| 2026-04-20 14:40 | 49.86719 | 11.33629 | 37089 ft | 463 kts | 175° |
| 2026-04-20 14:40 | 49.80347 | 11.35123 | 37084 ft | 463 kts | 175° |
| 2026-04-20 14:41 | 49.73979 | 11.36614 | 37102 ft | 463 kts | 175° |
| 2026-04-20 14:41 | 49.67648 | 11.38087 | 37101 ft | 463 kts | 175° |
| 2026-04-20 14:42 | 49.61270 | 11.39565 | 37076 ft | 463 kts | 175° |
| 2026-04-20 14:42 | 49.54887 | 11.41018 | 37080 ft | 463 kts | 176° |
| 2026-04-20 14:43 | 49.48486 | 11.42186 | 37083 ft | 462 kts | 178° |
| 2026-04-20 14:43 | 49.42085 | 11.43183 | 37087 ft | 463 kts | 178° |
| 2026-04-20 14:44 | 49.35679 | 11.44213 | 37074 ft | 463 kts | 179° |
| 2026-04-20 14:44 | 49.29270 | 11.45304 | 37071 ft | 463 kts | 178° |
| 2026-04-20 14:45 | 49.22860 | 11.46415 | 37078 ft | 464 kts | 178° |
| 2026-04-20 14:45 | 49.16445 | 11.47510 | 37051 ft | 464 kts | 179° |
| 2026-04-20 14:46 | 49.10068 | 11.48587 | 37060 ft | 464 kts | 179° |
| 2026-04-20 14:46 | 49.03650 | 11.49664 | 37068 ft | 464 kts | 179° |
| 2026-04-20 14:47 | 48.97224 | 11.50741 | 37071 ft | 464 kts | 179° |
| 2026-04-20 14:48 | 48.87587 | 11.52347 | 37045 ft | 465 kts | 179° |
| 2026-04-20 14:48 | 48.81154 | 11.53417 | 37045 ft | 465 kts | 179° |
| 2026-04-20 14:49 | 48.74723 | 11.54489 | 37048 ft | 465 kts | 179° |
| 2026-04-20 14:49 | 48.68287 | 11.55563 | 37043 ft | 465 kts | 180° |
| 2026-04-20 14:50 | 48.61855 | 11.56634 | 37053 ft | 465 kts | 180° |
| 2026-04-20 14:50 | 48.55421 | 11.57700 | 37063 ft | 465 kts | 180° |
| 2026-04-20 14:51 | 48.48996 | 11.58759 | 37027 ft | 465 kts | 180° |
| 2026-04-20 14:51 | 48.42567 | 11.59811 | 37055 ft | 464 kts | 180° |
| 2026-04-20 14:52 | 48.36148 | 11.60863 | 37065 ft | 463 kts | 180° |
| 2026-04-20 14:52 | 48.29738 | 11.61916 | 37071 ft | 463 kts | 180° |
| 2026-04-20 14:53 | 48.23381 | 11.62956 | 37083 ft | 462 kts | 180° |
| 2026-04-20 14:53 | 48.16981 | 11.63993 | 37082 ft | 462 kts | 180° |
| 2026-04-20 14:54 | 48.10594 | 11.65026 | 37083 ft | 462 kts | 180° |
| 2026-04-20 14:54 | 48.04205 | 11.66061 | 37053 ft | 462 kts | 180° |
| 2026-04-20 14:55 | 47.97825 | 11.67091 | 37065 ft | 461 kts | 180° |
| 2026-04-20 14:55 | 47.91452 | 11.68118 | 37065 ft | 460 kts | 180° |
| 2026-04-20 14:56 | 47.85082 | 11.69142 | 37069 ft | 460 kts | 180° |
| 2026-04-20 14:56 | 47.78718 | 11.70156 | 37039 ft | 460 kts | 180° |
| 2026-04-20 14:57 | 47.72356 | 11.71167 | 37053 ft | 459 kts | 180° |
| 2026-04-20 14:57 | 47.65996 | 11.72187 | 37049 ft | 460 kts | 180° |
| 2026-04-20 14:58 | 47.59636 | 11.73212 | 37029 ft | 459 kts | 179° |
| 2026-04-20 14:58 | 47.53281 | 11.74219 | 37032 ft | 459 kts | 179° |
| 2026-04-20 14:59 | 47.46971 | 11.75213 | 37054 ft | 459 kts | 180° |
| 2026-04-20 14:59 | 47.40605 | 11.76220 | 37012 ft | 460 kts | 180° |
| 2026-04-20 15:00 | 47.35316 | 11.76898 | 37015 ft | 455 kts | 186° |
| 2026-04-20 15:00 | 47.29020 | 11.76567 | 37020 ft | 452 kts | 188° |
| 2026-04-20 15:01 | 47.22739 | 11.76210 | 37015 ft | 452 kts | 188° |
| 2026-04-20 15:01 | 47.16458 | 11.75872 | 36992 ft | 452 kts | 188° |
| 2026-04-20 15:02 | 47.10164 | 11.75530 | 36985 ft | 453 kts | 188° |
| 2026-04-20 15:02 | 47.03855 | 11.75192 | 36986 ft | 453 kts | 188° |
| 2026-04-20 15:03 | 46.97554 | 11.74851 | 36957 ft | 454 kts | 188° |
| 2026-04-20 15:03 | 46.91297 | 11.74508 | 36938 ft | 454 kts | 188° |
| 2026-04-20 15:04 | 46.84970 | 11.74165 | 36932 ft | 454 kts | 188° |
| 2026-04-20 15:04 | 46.78656 | 11.73831 | 36939 ft | 454 kts | 188° |
| 2026-04-20 15:05 | 46.72352 | 11.73491 | 36911 ft | 453 kts | 188° |
| 2026-04-20 15:05 | 46.66045 | 11.73141 | 36897 ft | 453 kts | 188° |
| 2026-04-20 15:06 | 46.59748 | 11.72791 | 36883 ft | 453 kts | 188° |
| 2026-04-20 15:06 | 46.53444 | 11.72438 | 36871 ft | 453 kts | 189° |
| 2026-04-20 15:07 | 46.47172 | 11.72087 | 36885 ft | 453 kts | 188° |
| 2026-04-20 15:07 | 46.40870 | 11.71739 | 36897 ft | 453 kts | 189° |
| 2026-04-20 15:08 | 46.34546 | 11.71592 | 36901 ft | 456 kts | 186° |
| 2026-04-20 15:08 | 46.28187 | 11.71886 | 36917 ft | 458 kts | 184° |
| 2026-04-20 15:09 | 46.21822 | 11.72246 | 36920 ft | 457 kts | 184° |
| 2026-04-20 15:09 | 46.15462 | 11.72520 | 36932 ft | 457 kts | 185° |
| 2026-04-20 15:10 | 46.09113 | 11.72719 | 36946 ft | 456 kts | 185° |
| 2026-04-20 15:10 | 46.02768 | 11.72915 | 36956 ft | 456 kts | 185° |
| 2026-04-20 15:11 | 45.96416 | 11.73142 | 36923 ft | 457 kts | 185° |
| 2026-04-20 15:11 | 45.90055 | 11.73375 | 36944 ft | 458 kts | 185° |
| 2026-04-20 15:12 | 45.83689 | 11.73604 | 36962 ft | 457 kts | 185° |
| 2026-04-20 15:12 | 45.77329 | 11.73829 | 36962 ft | 457 kts | 185° |
| 2026-04-20 15:13 | 45.71016 | 11.74051 | 36940 ft | 456 kts | 185° |
| 2026-04-20 15:13 | 45.64664 | 11.74270 | 36931 ft | 456 kts | 185° |
| 2026-04-20 15:14 | 45.58314 | 11.74483 | 36934 ft | 456 kts | 185° |
| 2026-04-20 15:14 | 45.51970 | 11.74713 | 36927 ft | 456 kts | 185° |
| 2026-04-20 15:15 | 45.45642 | 11.74940 | 36949 ft | 455 kts | 185° |
| 2026-04-20 15:15 | 45.39315 | 11.75160 | 36958 ft | 454 kts | 185° |
| 2026-04-20 15:16 | 45.32995 | 11.75370 | 36937 ft | 454 kts | 185° |
| 2026-04-20 15:16 | 45.26679 | 11.75586 | 36951 ft | 454 kts | 185° |
| 2026-04-20 15:17 | 45.20392 | 11.75803 | 36956 ft | 454 kts | 185° |
| 2026-04-20 15:17 | 45.14069 | 11.76028 | 36942 ft | 454 kts | 185° |
| 2026-04-20 15:18 | 45.07746 | 11.76244 | 36953 ft | 454 kts | 185° |
| 2026-04-20 15:18 | 45.01427 | 11.76455 | 36968 ft | 454 kts | 185° |
| 2026-04-20 15:19 | 44.95102 | 11.76676 | 36946 ft | 454 kts | 185° |
| 2026-04-20 15:19 | 44.88776 | 11.76893 | 36968 ft | 454 kts | 185° |
| 2026-04-20 15:20 | 44.82449 | 11.77107 | 36972 ft | 454 kts | 185° |
| 2026-04-20 15:20 | 44.76131 | 11.77319 | 36965 ft | 454 kts | 185° |
| 2026-04-20 15:21 | 44.69813 | 11.77538 | 36972 ft | 454 kts | 185° |
| 2026-04-20 15:21 | 44.63496 | 11.77750 | 36987 ft | 454 kts | 185° |
| 2026-04-20 15:22 | 44.57185 | 11.77963 | 36953 ft | 454 kts | 185° |
| 2026-04-20 15:22 | 44.50878 | 11.78174 | 36958 ft | 454 kts | 185° |
| 2026-04-20 15:23 | 44.44561 | 11.78384 | 36962 ft | 454 kts | 185° |
| 2026-04-20 15:23 | 44.38293 | 11.78588 | 36953 ft | 454 kts | 185° |
| 2026-04-20 15:24 | 44.31983 | 11.78798 | 36954 ft | 453 kts | 185° |
| 2026-04-20 15:24 | 44.25675 | 11.79006 | 36929 ft | 453 kts | 185° |
| 2026-04-20 15:25 | 44.19369 | 11.79216 | 36935 ft | 453 kts | 185° |
| 2026-04-20 15:25 | 44.13062 | 11.79434 | 36945 ft | 453 kts | 185° |
| 2026-04-20 15:26 | 44.06757 | 11.79648 | 36942 ft | 452 kts | 185° |
| 2026-04-20 15:26 | 44.00466 | 11.79857 | 36941 ft | 452 kts | 185° |
| 2026-04-20 15:27 | 43.94172 | 11.80055 | 36940 ft | 452 kts | 185° |
| 2026-04-20 15:27 | 43.87873 | 11.80448 | 36778 ft | 459 kts | 178° |
| 2026-04-20 15:27 | 43.84710 | 11.81071 | 36519 ft | 460 kts | 178° |
| 2026-04-20 15:28 | 43.81544 | 11.81700 | 36254 ft | 459 kts | 178° |
| 2026-04-20 15:28 | 43.78378 | 11.82327 | 35965 ft | 459 kts | 178° |
| 2026-04-20 15:28 | 43.75223 | 11.83060 | 35716 ft | 461 kts | 175° |
| 2026-04-20 15:28 | 43.72079 | 11.83976 | 35475 ft | 461 kts | 173° |
| 2026-04-20 15:29 | 43.68958 | 11.85008 | 35212 ft | 461 kts | 172° |
| 2026-04-20 15:29 | 43.65868 | 11.86090 | 34809 ft | 457 kts | 172° |
| 2026-04-20 15:29 | 43.62786 | 11.87169 | 34288 ft | 456 kts | 172° |
| 2026-04-20 15:29 | 43.59713 | 11.88214 | 33754 ft | 454 kts | 172° |
| 2026-04-20 15:30 | 43.56652 | 11.89219 | 33248 ft | 450 kts | 173° |
| 2026-04-20 15:30 | 43.53614 | 11.90186 | 32736 ft | 446 kts | 173° |
| 2026-04-20 15:30 | 43.50593 | 11.91132 | 32251 ft | 443 kts | 173° |
| 2026-04-20 15:30 | 43.47635 | 11.92050 | 31781 ft | 440 kts | 173° |
| 2026-04-20 15:31 | 43.44614 | 11.92987 | 31285 ft | 437 kts | 173° |
| 2026-04-20 15:31 | 43.41698 | 11.93898 | 30814 ft | 435 kts | 173° |
| 2026-04-20 15:31 | 43.38760 | 11.94826 | 30342 ft | 432 kts | 173° |
| 2026-04-20 15:31 | 43.35847 | 11.95749 | 29850 ft | 428 kts | 172° |
| 2026-04-20 15:32 | 43.32959 | 11.96666 | 29405 ft | 423 kts | 172° |
| 2026-04-20 15:32 | 43.30104 | 11.97573 | 28958 ft | 420 kts | 172° |
| 2026-04-20 15:32 | 43.27269 | 11.98471 | 28537 ft | 416 kts | 173° |
| 2026-04-20 15:32 | 43.24461 | 11.99358 | 28114 ft | 412 kts | 173° |
| 2026-04-20 15:33 | 43.21674 | 12.00232 | 27696 ft | 410 kts | 173° |
| 2026-04-20 15:33 | 43.18903 | 12.01097 | 27257 ft | 407 kts | 173° |
| 2026-04-20 15:33 | 43.16156 | 12.01955 | 26854 ft | 404 kts | 172° |
| 2026-04-20 15:33 | 43.13420 | 12.02810 | 26420 ft | 401 kts | 172° |
| 2026-04-20 15:34 | 43.10707 | 12.03661 | 25992 ft | 399 kts | 172° |
| 2026-04-20 15:34 | 43.08010 | 12.04507 | 25548 ft | 397 kts | 172° |
| 2026-04-20 15:34 | 43.05325 | 12.05345 | 25101 ft | 395 kts | 172° |
| 2026-04-20 15:34 | 43.02649 | 12.06185 | 24638 ft | 394 kts | 172° |
| 2026-04-20 15:35 | 42.99981 | 12.07021 | 24189 ft | 393 kts | 172° |
| 2026-04-20 15:35 | 42.97319 | 12.07849 | 23717 ft | 392 kts | 172° |
| 2026-04-20 15:35 | 42.94662 | 12.08675 | 23210 ft | 391 kts | 172° |
| 2026-04-20 15:35 | 42.92020 | 12.09496 | 22741 ft | 388 kts | 172° |
| 2026-04-20 15:36 | 42.89395 | 12.10311 | 22287 ft | 385 kts | 172° |
| 2026-04-20 15:36 | 42.86795 | 12.11118 | 21839 ft | 382 kts | 172° |
| 2026-04-20 15:36 | 42.84211 | 12.11922 | 21403 ft | 380 kts | 172° |
| 2026-04-20 15:36 | 42.81644 | 12.12719 | 20964 ft | 377 kts | 172° |
| 2026-04-20 15:37 | 42.79131 | 12.13494 | 20538 ft | 374 kts | 172° |
| 2026-04-20 15:37 | 42.76564 | 12.14287 | 20094 ft | 372 kts | 172° |
| 2026-04-20 15:37 | 42.74082 | 12.15054 | 19691 ft | 370 kts | 172° |
| 2026-04-20 15:37 | 42.71570 | 12.15833 | 19270 ft | 369 kts | 171° |
| 2026-04-20 15:38 | 42.69152 | 12.17010 | 19026 ft | 368 kts | 158° |
| 2026-04-20 15:38 | 42.66945 | 12.18702 | 18708 ft | 362 kts | 153° |
| 2026-04-20 15:38 | 42.64785 | 12.20431 | 18140 ft | 359 kts | 153° |
| 2026-04-20 15:38 | 42.62647 | 12.22140 | 17543 ft | 354 kts | 153° |
| 2026-04-20 15:39 | 42.60535 | 12.23825 | 17130 ft | 351 kts | 153° |
| 2026-04-20 15:39 | 42.58429 | 12.25503 | 16730 ft | 350 kts | 153° |
| 2026-04-20 15:39 | 42.56329 | 12.27179 | 16307 ft | 350 kts | 153° |
| 2026-04-20 15:39 | 42.54232 | 12.28851 | 15910 ft | 349 kts | 153° |
| 2026-04-20 15:40 | 42.52141 | 12.30517 | 15547 ft | 347 kts | 153° |
| 2026-04-20 15:40 | 42.50087 | 12.32158 | 15396 ft | 339 kts | 153° |
| 2026-04-20 15:40 | 42.48083 | 12.33760 | 14999 ft | 332 kts | 153° |
| 2026-04-20 15:40 | 42.46101 | 12.35341 | 14479 ft | 329 kts | 153° |
| 2026-04-20 15:41 | 42.44140 | 12.36902 | 13983 ft | 325 kts | 153° |
| 2026-04-20 15:41 | 42.42226 | 12.38424 | 13479 ft | 323 kts | 153° |
| 2026-04-20 15:41 | 42.40269 | 12.39972 | 13223 ft | 318 kts | 153° |
| 2026-04-20 15:41 | 42.38408 | 12.41445 | 13091 ft | 310 kts | 153° |
| 2026-04-20 15:42 | 42.36570 | 12.42880 | 12963 ft | 300 kts | 156° |
| 2026-04-20 15:42 | 42.34661 | 12.43881 | 12756 ft | 291 kts | 167° |
| 2026-04-20 15:42 | 42.32740 | 12.44692 | 12506 ft | 288 kts | 167° |
| 2026-04-20 15:42 | 42.30826 | 12.45489 | 12214 ft | 285 kts | 169° |
| 2026-04-20 15:43 | 42.28922 | 12.45667 | 11928 ft | 265 kts | 197° |
| 2026-04-20 15:43 | 42.27312 | 12.44704 | 11528 ft | 248 kts | 225° |
| 2026-04-20 15:43 | 42.26307 | 12.42904 | 11048 ft | 239 kts | 246° |
| 2026-04-20 15:43 | 42.25626 | 12.40860 | 10550 ft | 238 kts | 250° |
| 2026-04-20 15:44 | 42.24993 | 12.38804 | 10058 ft | 237 kts | 250° |
| 2026-04-20 15:44 | 42.24373 | 12.36750 | 9559 ft | 235 kts | 250° |
| 2026-04-20 15:44 | 42.23759 | 12.34703 | 8956 ft | 237 kts | 250° |
| 2026-04-20 15:44 | 42.23140 | 12.32608 | 8298 ft | 242 kts | 250° |
| 2026-04-20 15:45 | 42.22524 | 12.30507 | 7763 ft | 240 kts | 250° |
| 2026-04-20 15:45 | 42.21914 | 12.28412 | 7223 ft | 239 kts | 250° |
| 2026-04-20 15:45 | 42.21318 | 12.26373 | 6896 ft | 230 kts | 250° |
| 2026-04-20 15:45 | 42.20739 | 12.24383 | 6427 ft | 226 kts | 250° |
| 2026-04-20 15:46 | 42.20172 | 12.22396 | 5846 ft | 228 kts | 250° |
| 2026-04-20 15:46 | 42.19601 | 12.20418 | 5315 ft | 226 kts | 250° |
| 2026-04-20 15:46 | 42.19007 | 12.18442 | 4777 ft | 228 kts | 244° |
| 2026-04-20 15:46 | 42.17971 | 12.16869 | 4287 ft | 231 kts | 218° |
| 2026-04-20 15:47 | 42.16659 | 12.15632 | 4016 ft | 228 kts | 211° |
| 2026-04-20 15:47 | 42.15177 | 12.14894 | 3715 ft | 227 kts | 195° |
| 2026-04-20 15:47 | 42.13652 | 12.14408 | 3456 ft | 224 kts | 189° |
| 2026-04-20 15:47 | 42.12123 | 12.14561 | 3231 ft | 221 kts | 166° |
| 2026-04-20 15:48 | 42.10667 | 12.15172 | 2933 ft | 217 kts | 165° |
| 2026-04-20 15:48 | 42.09237 | 12.15782 | 2671 ft | 214 kts | 165° |
| 2026-04-20 15:48 | 42.08304 | 12.16177 | 2584 ft | 210 kts | 165° |
| 2026-04-20 15:48 | 42.06948 | 12.16750 | 2551 ft | 199 kts | 165° |
| 2026-04-20 15:49 | 42.05662 | 12.17293 | 2553 ft | 189 kts | 165° |
| 2026-04-20 15:49 | 42.04437 | 12.17810 | 2556 ft | 181 kts | 166° |
| 2026-04-20 15:49 | 42.03248 | 12.18311 | 2562 ft | 176 kts | 165° |
| 2026-04-20 15:49 | 42.02108 | 12.18791 | 2510 ft | 170 kts | 164° |
| 2026-04-20 15:50 | 42.00995 | 12.19260 | 2506 ft | 167 kts | 165° |
| 2026-04-20 15:50 | 41.99890 | 12.19724 | 2503 ft | 165 kts | 166° |
| 2026-04-20 15:50 | 41.98802 | 12.20183 | 2506 ft | 162 kts | 166° |
| 2026-04-20 15:50 | 41.97709 | 12.20642 | 2501 ft | 167 kts | 164° |
| 2026-04-20 15:51 | 41.96591 | 12.21113 | 2426 ft | 169 kts | 163° |
| 2026-04-20 15:51 | 41.95470 | 12.21584 | 2239 ft | 170 kts | 165° |
| 2026-04-20 15:51 | 41.94331 | 12.22062 | 2031 ft | 172 kts | 166° |
| 2026-04-20 15:51 | 41.93190 | 12.22542 | 1813 ft | 170 kts | 165° |
| 2026-04-20 15:52 | 41.92096 | 12.23003 | 1592 ft | 159 kts | 166° |
| 2026-04-20 15:52 | 41.91414 | 12.23290 | 1455 ft | 152 kts | 165° |